createdAt,value
2022-09-12T00:00:45.633Z,95721
2022-09-12T00:01:48.380Z,95722.3
2022-09-12T00:02:50.044Z,95719.4
2022-09-12T00:03:52.238Z,95712.8
2022-09-12T00:04:54.740Z,95719.5
2022-09-12T00:05:57.225Z,95718.6
2022-09-12T00:06:59.428Z,95717
2022-09-12T00:08:01.918Z,95719.2
2022-09-12T00:09:04.386Z,95715.1
2022-09-12T00:10:06.854Z,95713.2
2022-09-12T00:11:09.323Z,95713.7
2022-09-12T00:12:11.820Z,95713.2
2022-09-12T00:13:14.385Z,95713.7
2022-09-12T00:14:16.852Z,95715.1
2022-09-12T00:15:19.343Z,95711.9
2022-09-12T00:16:21.871Z,95708.9
2022-09-12T00:17:24.466Z,95708.8
2022-09-12T00:18:26.935Z,95705.5
2022-09-12T00:19:29.411Z,95708.7
2022-09-12T00:20:31.638Z,95708.1
2022-09-12T00:21:33.551Z,95710.5
2022-09-12T00:22:36.026Z,95705.6
2022-09-12T00:23:38.525Z,95707.2
2022-09-12T00:24:40.718Z,95706
2022-09-12T00:25:43.202Z,95707.2
2022-09-12T00:26:45.376Z,95703.9
2022-09-12T00:27:47.874Z,95704.5
2022-09-12T00:28:50.076Z,95706.1
2022-09-12T00:29:52.278Z,95705
2022-09-12T00:30:54.781Z,95700.2
2022-09-12T00:31:57.506Z,95702.9
2022-09-12T00:32:59.840Z,95701.2
2022-09-12T00:34:02.448Z,95699.1
2022-09-12T00:35:04.927Z,95697.4
2022-09-12T00:36:07.426Z,95698.2
2022-09-12T00:37:09.593Z,95695.4
2022-09-12T00:38:11.779Z,95696.3
2022-09-12T00:39:14.276Z,95695.2
2022-09-12T00:40:16.924Z,95696.6
2022-09-12T00:41:19.229Z,95698
2022-09-12T00:42:21.706Z,95695.4
2022-09-12T00:43:24.188Z,95693.6
2022-09-12T00:44:26.092Z,95694.3
2022-09-12T00:45:28.720Z,95693.8
2022-09-12T00:46:31.279Z,95692.8
2022-09-12T00:47:33.746Z,95688.1
2022-09-12T00:48:36.433Z,95689.5
2022-09-12T00:49:38.901Z,95688.5
2022-09-12T00:50:41.370Z,95684.1
2022-09-12T00:51:43.860Z,95688.7
2022-09-12T00:52:46.339Z,95686.4
2022-09-12T00:53:48.811Z,95682.8
2022-09-12T00:54:51.327Z,95682.6
2022-09-12T00:55:53.236Z,95681.2
2022-09-12T00:56:55.438Z,95681.8
2022-09-12T00:57:57.652Z,95681.8
2022-09-12T00:58:59.855Z,95679.9
2022-09-12T01:00:02.060Z,95680.8
2022-09-12T01:01:05.027Z,95678.1
2022-09-12T01:02:08.165Z,95678.3
2022-09-12T01:03:10.936Z,95676.1
2022-09-12T01:04:13.161Z,95672.7
2022-09-12T01:05:15.355Z,95674
2022-09-12T01:06:17.832Z,95670
2022-09-12T01:07:20.327Z,95676.8
2022-09-12T01:08:22.801Z,95677.9
2022-09-12T01:09:24.993Z,95677.6
2022-09-12T01:10:26.954Z,95678.5
2022-09-12T01:11:29.429Z,95674.7
2022-09-12T01:12:31.907Z,95677.1
2022-09-12T01:13:34.374Z,95674.7
2022-09-12T01:14:36.606Z,95676.1
2022-09-12T01:15:38.521Z,95671.1
2022-09-12T01:16:41.151Z,95669.7
2022-09-12T01:17:43.161Z,95670.3
2022-09-12T01:18:46.012Z,95668.8
2022-09-12T01:19:48.792Z,95664.5
2022-09-12T01:20:50.966Z,95666.3
2022-09-12T01:21:53.433Z,95660.7
2022-09-12T01:22:55.662Z,95662.7
2022-09-12T01:23:57.843Z,95662.3
2022-09-12T01:25:00.328Z,95658.8
2022-09-12T01:26:02.814Z,95657.8
2022-09-12T01:27:05.014Z,95652.8
2022-09-12T01:28:07.204Z,95659
2022-09-12T01:29:09.408Z,95650.7
2022-09-12T01:30:11.888Z,95652.1
2022-09-12T01:31:14.362Z,95655.1
2022-09-12T01:32:17.014Z,95654.8
2022-09-12T01:33:19.545Z,95653.2
2022-09-12T01:34:22.021Z,95651.4
2022-09-12T01:35:24.240Z,95653.4
2022-09-12T01:36:26.434Z,95651
2022-09-12T01:37:28.912Z,95651
2022-09-12T01:38:31.401Z,95648.3
2022-09-12T01:39:33.866Z,95649.2
2022-09-12T01:40:35.784Z,95650.3
2022-09-12T01:41:38.059Z,95648.3
2022-09-12T01:42:40.532Z,95651
2022-09-12T01:43:43.007Z,95649.6
2022-09-12T01:44:45.184Z,95653.3
2022-09-12T01:45:47.620Z,95646.6
2022-09-12T01:46:50.139Z,95651
2022-09-12T01:47:52.615Z,95645.8
2022-09-12T01:48:55.109Z,95648
2022-09-12T01:49:57.304Z,95645.8
2022-09-12T01:50:59.830Z,95643.6
2022-09-12T01:52:02.021Z,95644.2
2022-09-12T01:53:03.658Z,95645.2
2022-09-12T01:54:05.874Z,95648.4
2022-09-12T01:56:13.342Z,95637.4
2022-09-12T01:57:15.829Z,95638.8
2022-09-12T01:58:18.294Z,95640
2022-09-12T01:59:20.757Z,95637.7
2022-09-12T02:00:22.687Z,95636.5
2022-09-12T02:01:25.536Z,95635.5
2022-09-12T02:02:27.738Z,95637.1
2022-09-12T02:03:30.319Z,95634.3
2022-09-12T02:05:37.782Z,95628.8
2022-09-12T02:06:40.284Z,95630.9
2022-09-12T02:07:42.754Z,95623
2022-09-12T02:08:45.625Z,95627.8
2022-09-12T02:09:48.327Z,95627
2022-09-12T02:10:50.789Z,95624.1
2022-09-12T02:11:53.259Z,95625.7
2022-09-12T02:12:55.490Z,95624.7
2022-09-12T02:13:57.980Z,95617.9
2022-09-12T02:15:00.447Z,95619.7
2022-09-12T02:16:02.639Z,95619
2022-09-12T02:17:05.133Z,95618.9
2022-09-12T02:18:07.601Z,95618
2022-09-12T02:19:10.085Z,95617.2
2022-09-12T02:21:17.280Z,95614
2022-09-12T02:22:19.503Z,95617
2022-09-12T02:23:21.993Z,95612.6
2022-09-12T02:24:24.193Z,95611.1
2022-09-12T02:25:26.691Z,95613.5
2022-09-12T02:26:29.152Z,95612
2022-09-12T02:27:31.341Z,95609.7
2022-09-12T02:28:33.833Z,95605.1
2022-09-12T02:29:35.755Z,95609
2022-09-12T02:30:38.335Z,95609.9
2022-09-12T02:31:40.321Z,95609.2
2022-09-12T02:32:42.831Z,95611.2
2022-09-12T02:33:45.301Z,95610.2
2022-09-12T02:34:47.499Z,95609.8
2022-09-12T02:35:49.716Z,95613.3
2022-09-12T02:36:52.187Z,95612
2022-09-12T02:37:54.674Z,95610.1
2022-09-12T02:38:57.165Z,95609.2
2022-09-12T02:39:59.938Z,95611
2022-09-12T02:41:02.272Z,95608.9
2022-09-12T02:42:04.455Z,95607.5
2022-09-12T02:43:06.934Z,95606.4
2022-09-12T02:44:09.153Z,95605.1
2022-09-12T02:45:11.623Z,95605.3
2022-09-12T02:46:14.103Z,95600.9
2022-09-12T02:47:16.585Z,95609.2
2022-09-12T02:48:19.069Z,95602.7
2022-09-12T02:49:21.546Z,95597.8
2022-09-12T02:50:24.010Z,95605.8
2022-09-12T02:51:26.222Z,95605
2022-09-12T02:52:28.686Z,95601
2022-09-12T02:53:31.205Z,95600.1
2022-09-12T02:54:33.684Z,95606.2
2022-09-12T02:55:35.881Z,95603.2
2022-09-12T02:56:38.374Z,95602
2022-09-12T02:57:40.548Z,95603.6
2022-09-12T02:58:43.105Z,95603.5
2022-09-12T02:59:45.319Z,95599
2022-09-12T03:00:47.803Z,95603.5
2022-09-12T03:01:50.318Z,95598.6
2022-09-12T03:02:52.861Z,95599.8
2022-09-12T03:03:55.084Z,95600.7
2022-09-12T03:04:57.544Z,95600.7
2022-09-12T03:05:59.740Z,95597.3
2022-09-12T03:07:01.947Z,95599.3
2022-09-12T03:08:04.126Z,95594.7
2022-09-12T03:09:06.360Z,95595.8
2022-09-12T03:10:08.552Z,95599.6
2022-09-12T03:11:10.762Z,95599.3
2022-09-12T03:12:13.272Z,95596.8
2022-09-12T03:13:15.748Z,95596.6
2022-09-12T03:14:18.225Z,95595.7
2022-09-12T03:15:20.716Z,95598.2
2022-09-12T03:16:23.287Z,95599.3
2022-09-12T03:17:25.557Z,95598.3
2022-09-12T03:18:27.741Z,95591.5
2022-09-12T03:19:29.968Z,95592.3
2022-09-12T03:20:32.132Z,95593.4
2022-09-12T03:21:34.354Z,95589.6
2022-09-12T03:22:36.573Z,95593.8
2022-09-12T03:23:38.762Z,95592.5
2022-09-12T03:24:40.973Z,95593
2022-09-12T03:25:43.450Z,95591.4
2022-09-12T03:26:45.913Z,95595.9
2022-09-12T03:27:48.119Z,95592.2
2022-09-12T03:28:50.291Z,95591.6
2022-09-12T03:29:52.484Z,95592.5
2022-09-12T03:30:55.051Z,95594
2022-09-12T03:31:57.631Z,95590.1
2022-09-12T03:33:00.109Z,95592.2
2022-09-12T03:34:02.614Z,95588.9
2022-09-12T03:35:05.088Z,95588.2
2022-09-12T03:36:07.556Z,95590.6
2022-09-12T03:37:10.024Z,95592.9
2022-09-12T03:38:12.247Z,95586.1
2022-09-12T03:39:14.454Z,95590.5
2022-09-12T03:40:17.176Z,95586.1
2022-09-12T03:41:18.798Z,95589.5
2022-09-12T03:42:21.012Z,95586.4
2022-09-12T03:43:23.500Z,95591
2022-09-12T03:44:25.967Z,95587.5
2022-09-12T03:45:28.435Z,95588.5
2022-09-12T03:46:31.015Z,95586
2022-09-12T03:47:33.492Z,95583.6
2022-09-12T03:48:36.245Z,95581.4
2022-09-12T03:49:38.441Z,95586.3
2022-09-12T03:50:40.664Z,95584.2
2022-09-12T03:51:42.862Z,95584.7
2022-09-12T03:52:44.759Z,95587.5
2022-09-12T03:53:46.976Z,95584.6
2022-09-12T03:54:49.462Z,95584.4
2022-09-12T03:55:51.943Z,95585.6
2022-09-12T03:56:54.418Z,95588.3
2022-09-12T03:57:56.892Z,95591.8
2022-09-12T03:58:59.120Z,95588.6
2022-09-12T04:00:01.036Z,95590.1
2022-09-12T04:01:03.447Z,95588.2
2022-09-12T04:02:06.201Z,95587.5
2022-09-12T04:03:08.756Z,95586.8
2022-09-12T04:04:11.229Z,95587.4
2022-09-12T04:05:13.161Z,95587.5
2022-09-12T04:06:15.646Z,95589.4
2022-09-12T04:07:18.130Z,95590.5
2022-09-12T04:08:20.605Z,95592
2022-09-12T04:09:23.085Z,95589
2022-09-12T04:10:25.556Z,95590.3
2022-09-12T04:11:28.036Z,95592.9
2022-09-12T04:12:30.263Z,95590.2
2022-09-12T04:13:32.727Z,95590.3
2022-09-12T04:14:35.223Z,95592.9
2022-09-12T04:15:37.122Z,95594.9
2022-09-12T04:16:39.689Z,95595.7
2022-09-12T04:17:41.977Z,95590.4
2022-09-12T04:18:44.651Z,95592.6
2022-09-12T04:19:47.745Z,95589.9
2022-09-12T04:20:50.230Z,95593.1
2022-09-12T04:21:52.443Z,95587.4
2022-09-12T04:22:54.916Z,95588.6
2022-09-12T04:23:57.111Z,95594.2
2022-09-12T04:24:59.301Z,95593.1
2022-09-12T04:26:01.768Z,95594.6
2022-09-12T04:28:09.257Z,95596.3
2022-09-12T04:29:11.733Z,95597.2
2022-09-12T04:30:14.226Z,95594.5
2022-09-12T04:31:16.416Z,95596.9
2022-09-12T04:32:18.884Z,95595.1
2022-09-12T04:33:21.080Z,95595.8
2022-09-12T04:34:23.549Z,95595.7
2022-09-12T04:35:25.456Z,95596.4
2022-09-12T04:36:27.918Z,95593.8
2022-09-12T04:37:29.864Z,95598.6
2022-09-12T04:38:32.328Z,95593.7
2022-09-12T04:39:34.807Z,95596.9
2022-09-12T04:40:37.046Z,95594.4
2022-09-12T04:41:39.529Z,95590.8
2022-09-12T04:42:42.021Z,95590.2
2022-09-12T04:43:44.217Z,95590.2
2022-09-12T04:44:46.126Z,95593.7
2022-09-12T04:45:48.771Z,95588.5
2022-09-12T04:46:51.289Z,95591.8
2022-09-12T04:47:53.495Z,95591.5
2022-09-12T04:50:00.997Z,95591
2022-09-12T04:51:03.465Z,95590.7
2022-09-12T04:52:05.934Z,95594.6
2022-09-12T04:53:07.884Z,95592.8
2022-09-12T04:54:10.365Z,95589.3
2022-09-12T04:55:12.845Z,95589.7
2022-09-12T04:56:15.063Z,95589.2
2022-09-12T04:57:17.544Z,95590.7
2022-09-12T04:58:20.023Z,95591.6
2022-09-12T04:59:22.498Z,95589.8
2022-09-12T05:00:24.715Z,95591.9
2022-09-12T05:01:27.213Z,95591.7
2022-09-12T05:02:30.030Z,95592
2022-09-12T05:03:32.576Z,95590.6
2022-09-12T05:04:34.194Z,95595.3
2022-09-12T05:05:36.688Z,95591.5
2022-09-12T05:06:39.171Z,95590
2022-09-12T05:07:41.384Z,95593.8
2022-09-12T05:08:43.993Z,95591.8
2022-09-12T05:09:46.304Z,95592.6
2022-09-12T05:10:48.218Z,95594.1
2022-09-12T05:12:55.686Z,95594.9
2022-09-12T05:13:57.919Z,95596.2
2022-09-12T05:15:00.389Z,95595.4
2022-09-12T05:16:02.289Z,95599.7
2022-09-12T05:17:04.988Z,95597.4
2022-09-12T05:18:07.512Z,95600.7
2022-09-12T05:19:09.430Z,95599.7
2022-09-12T05:20:11.631Z,95600.7
2022-09-12T05:21:13.851Z,95599
2022-09-12T05:22:16.329Z,95597.7
2022-09-12T05:23:18.798Z,95601.9
2022-09-12T05:24:21.414Z,95601.3
2022-09-12T05:25:23.883Z,95603.2
2022-09-12T05:26:26.367Z,95607.9
2022-09-12T05:27:28.548Z,95608.5
2022-09-12T05:28:30.815Z,95608.4
2022-09-12T05:29:32.759Z,95608.9
2022-09-12T05:30:35.402Z,95608.4
2022-09-12T05:31:37.931Z,95610.4
2022-09-12T05:32:40.160Z,95612.2
2022-09-12T05:33:42.642Z,95612.6
2022-09-12T05:34:44.852Z,95614.1
2022-09-12T05:35:47.318Z,95618
2022-09-12T05:36:49.546Z,95616.6
2022-09-12T05:37:51.719Z,95616.2
2022-09-12T05:38:53.936Z,95617.7
2022-09-12T05:39:56.675Z,95614.5
2022-09-12T05:40:59.226Z,95615.3
2022-09-12T05:42:01.155Z,95615.8
2022-09-12T05:43:03.373Z,95611.1
2022-09-12T05:44:05.856Z,95613.6
2022-09-12T05:45:08.070Z,95619.3
2022-09-12T05:46:09.895Z,95613.3
2022-09-12T05:47:12.424Z,95613.3
2022-09-12T05:48:14.916Z,95613.8
2022-09-12T05:49:17.122Z,95618
2022-09-12T05:50:19.612Z,95615.5
2022-09-12T05:51:21.523Z,95617.5
2022-09-12T05:52:23.732Z,95612.7
2022-09-12T05:53:26.260Z,95617.5
2022-09-12T05:55:33.228Z,95614
2022-09-12T05:56:35.698Z,95615
2022-09-12T05:57:38.168Z,95616.5
2022-09-12T05:58:40.662Z,95613.1
2022-09-12T05:59:42.968Z,95615.7
2022-09-12T06:00:45.462Z,95616.6
2022-09-12T06:01:48.219Z,95615.7
2022-09-12T06:02:51.056Z,95614.4
2022-09-12T06:03:53.296Z,95621.3
2022-09-12T06:04:55.776Z,95621.7
2022-09-12T06:05:57.952Z,95619.7
2022-09-12T06:06:59.867Z,95620.2
2022-09-12T06:08:02.354Z,95624
2022-09-12T06:09:04.563Z,95620.3
2022-09-12T06:10:06.755Z,95623.4
2022-09-12T06:11:09.262Z,95623.5
2022-09-12T06:12:11.481Z,95619.7
2022-09-12T06:13:13.117Z,95620.6
2022-09-12T06:14:15.618Z,95622.2
2022-09-12T06:15:17.837Z,95619.9
2022-09-12T06:16:20.543Z,95616.5
2022-09-12T06:17:23.117Z,95616
2022-09-12T06:18:25.286Z,95617.3
2022-09-12T06:19:27.251Z,95611.4
2022-09-12T06:20:29.442Z,95615.2
2022-09-12T06:21:31.955Z,95614.5
2022-09-12T06:22:34.156Z,95615.8
2022-09-12T06:23:36.649Z,95617.8
2022-09-12T06:24:39.146Z,95618
2022-09-12T06:25:41.633Z,95620.9
2022-09-12T06:26:43.857Z,95621
2022-09-12T06:27:46.334Z,95624
2022-09-12T06:28:48.806Z,95627.5
2022-09-12T06:29:51.333Z,95623
2022-09-12T06:30:53.365Z,95623.9
2022-09-12T06:31:55.666Z,95617.8
2022-09-12T06:32:57.875Z,95618.6
2022-09-12T06:34:00.417Z,95617.2
2022-09-12T06:35:02.661Z,95614.8
2022-09-12T06:37:13.091Z,95609.9
2022-09-12T06:38:15.290Z,95610
2022-09-12T06:39:17.235Z,95608.1
2022-09-12T06:40:19.111Z,95607.7
2022-09-12T06:41:21.388Z,95610.6
2022-09-12T06:42:23.599Z,95611.6
2022-09-12T06:43:25.270Z,95609.1
2022-09-12T06:44:27.786Z,95610.3
2022-09-12T06:45:30.280Z,95613.2
2022-09-12T06:46:32.482Z,95616.4
2022-09-12T06:47:34.978Z,95615.4
2022-09-12T06:49:42.149Z,95619.5
2022-09-12T06:50:44.085Z,95621.3
2022-09-12T06:51:46.288Z,95616.5
2022-09-12T06:52:48.789Z,95615
2022-09-12T06:53:51.262Z,95620.4
2022-09-12T06:54:53.789Z,95616.5
2022-09-12T06:55:56.257Z,95621.2
2022-09-12T06:56:58.742Z,95619.3
2022-09-12T06:58:00.955Z,95618
2022-09-12T06:59:02.866Z,95619.8
2022-09-12T07:00:05.077Z,95622
2022-09-12T07:01:07.382Z,95623
2022-09-12T07:02:10.242Z,95622.5
2022-09-12T07:03:12.551Z,95620.4
2022-09-12T07:04:14.725Z,95622.2
2022-09-12T07:05:16.955Z,95622.7
2022-09-12T07:06:19.249Z,95619.2
2022-09-12T07:07:21.447Z,95620
2022-09-12T07:08:23.628Z,95620.6
2022-09-12T07:09:26.107Z,95619.4
2022-09-12T07:10:28.602Z,95622.2
2022-09-12T07:11:30.783Z,95618.6
2022-09-12T07:12:33.255Z,95621.7
2022-09-12T07:13:35.181Z,95622.2
2022-09-12T07:14:37.650Z,95623.2
2022-09-12T07:15:39.588Z,95621.1
2022-09-12T07:16:42.393Z,95621.1
2022-09-12T07:17:45.055Z,95620.1
2022-09-12T07:18:47.334Z,95622.5
2022-09-12T07:19:49.815Z,95621.2
2022-09-12T07:20:52.291Z,95620.5
2022-09-12T07:22:59.516Z,95617.7
2022-09-12T07:24:01.993Z,95619
2022-09-12T07:25:04.465Z,95620.9
2022-09-12T07:26:06.952Z,95619.8
2022-09-12T07:27:09.157Z,95622.8
2022-09-12T07:28:11.628Z,95624.7
2022-09-12T07:30:18.834Z,95624.2
2022-09-12T07:31:21.311Z,95623.7
2022-09-12T07:32:23.526Z,95625.5
2022-09-12T07:33:26.004Z,95624.8
2022-09-12T07:34:28.525Z,95624.3
2022-09-12T07:35:31.002Z,95624.8
2022-09-12T07:36:33.506Z,95624.2
2022-09-12T07:37:35.989Z,95629.3
2022-09-12T07:38:38.477Z,95627.3
2022-09-12T07:39:41.098Z,95629.1
2022-09-12T07:40:43.624Z,95625
2022-09-12T07:41:45.853Z,95628.8
2022-09-12T07:42:47.769Z,95627.8
2022-09-12T07:43:49.977Z,95626
2022-09-12T07:44:52.446Z,95629.4
2022-09-12T07:45:55.150Z,95631.7
2022-09-12T07:46:57.718Z,95630.1
2022-09-12T07:47:59.982Z,95629.7
2022-09-12T07:49:02.183Z,95627.1
2022-09-12T07:50:04.697Z,95624.7
2022-09-12T07:51:06.620Z,95622.6
2022-09-12T07:52:09.115Z,95629.5
2022-09-12T07:53:11.315Z,95629.1
2022-09-12T07:54:13.811Z,95630.2
2022-09-12T07:55:15.437Z,95627.7
2022-09-12T07:56:17.915Z,95627.7
2022-09-12T07:57:20.414Z,95628.3
2022-09-12T07:58:22.902Z,95628.5
2022-09-12T08:00:30.431Z,95630.1
2022-09-12T08:01:33.259Z,95626.3
2022-09-12T08:02:36.085Z,95627.9
2022-09-12T08:03:38.633Z,95626.9
2022-09-12T08:04:40.551Z,95627.5
2022-09-12T08:05:42.782Z,95626.5
2022-09-12T08:06:45.254Z,95632
2022-09-12T08:07:47.742Z,95625.4
2022-09-12T08:08:49.946Z,95630.1
2022-09-12T08:09:52.443Z,95629.7
2022-09-12T08:10:54.916Z,95635.9
2022-09-12T08:11:57.403Z,95630.5
2022-09-12T08:12:59.614Z,95629
2022-09-12T08:14:02.099Z,95631.1
2022-09-12T08:15:04.291Z,95632.8
2022-09-12T08:16:06.750Z,95631.3
2022-09-12T08:17:09.295Z,95631.7
2022-09-12T08:18:11.527Z,95635.7
2022-09-12T08:19:14.042Z,95629.8
2022-09-12T08:20:15.970Z,95634
2022-09-12T08:21:18.456Z,95634.6
2022-09-12T08:22:20.953Z,95633.7
2022-09-12T08:23:22.905Z,95632.1
2022-09-12T08:24:25.114Z,95635.8
2022-09-12T08:25:27.067Z,95633.3
2022-09-12T08:26:29.538Z,95634.9
2022-09-12T08:27:32.022Z,95636
2022-09-12T08:28:34.528Z,95633.3
2022-09-12T08:29:36.450Z,95634.4
2022-09-12T08:30:39.047Z,95635.3
2022-09-12T08:31:41.285Z,95634.6
2022-09-12T08:32:43.543Z,95635.1
2022-09-12T08:33:45.718Z,95636.2
2022-09-12T08:34:48.537Z,95632.3
2022-09-12T08:35:51.014Z,95637.8
2022-09-12T08:36:53.519Z,95638.1
2022-09-12T08:37:55.992Z,95638.1
2022-09-12T08:40:03.515Z,95634.1
2022-09-12T08:41:05.781Z,95634.8
2022-09-12T08:42:08.519Z,95632.1
2022-09-12T08:43:10.753Z,95630.8
2022-09-12T08:44:12.977Z,95631.7
2022-09-12T08:45:15.187Z,95630.8
2022-09-12T08:46:17.664Z,95635.7
2022-09-12T08:47:19.956Z,95631.4
2022-09-12T08:48:22.488Z,95633.9
2022-09-12T08:49:24.976Z,95630.1
2022-09-12T08:50:27.467Z,95631.2
2022-09-12T08:51:29.676Z,95631
2022-09-12T08:52:32.172Z,95627.2
2022-09-12T08:53:34.387Z,95626.6
2022-09-12T08:54:36.957Z,95625.2
2022-09-12T08:55:39.445Z,95628.5
2022-09-12T08:56:41.672Z,95624.9
2022-09-12T08:57:44.142Z,95625.4
2022-09-12T08:58:46.610Z,95624.1
2022-09-12T08:59:49.124Z,95625.6
2022-09-12T09:00:51.363Z,95624.6
2022-09-12T09:01:54.087Z,95623.1
2022-09-12T09:02:56.419Z,95624.7
2022-09-12T09:03:58.723Z,95623.7
2022-09-12T09:05:00.915Z,95621.9
2022-09-12T09:06:03.156Z,95621.1
2022-09-12T09:07:05.623Z,95619.8
2022-09-12T09:08:08.123Z,95622.6
2022-09-12T09:09:10.602Z,95623.7
2022-09-12T09:10:12.821Z,95621
2022-09-12T09:11:15.294Z,95618
2022-09-12T09:12:17.544Z,95618.3
2022-09-12T09:13:20.006Z,95614.5
2022-09-12T09:14:22.507Z,95615.9
2022-09-12T09:15:25.006Z,95614.4
2022-09-12T09:16:27.650Z,95608
2022-09-12T09:17:29.844Z,95610.5
2022-09-12T09:18:31.745Z,95607.5
2022-09-12T09:19:33.691Z,95608
2022-09-12T09:20:36.165Z,95606.9
2022-09-12T09:21:38.393Z,95604.9
2022-09-12T09:22:40.318Z,95605.1
2022-09-12T09:23:42.729Z,95608.2
2022-09-12T09:24:44.918Z,95605.1
2022-09-12T09:25:46.837Z,95604.3
2022-09-12T09:26:49.316Z,95602.8
2022-09-12T09:27:51.268Z,95605
2022-09-12T09:28:53.468Z,95604.1
2022-09-12T09:29:55.953Z,95597.9
2022-09-12T09:30:58.792Z,95599.6
2022-09-12T09:32:00.840Z,95606.1
2022-09-12T09:33:02.783Z,95597.7
2022-09-12T09:34:04.970Z,95598.6
2022-09-12T09:35:07.187Z,95602.3
2022-09-12T09:36:09.124Z,95602.1
2022-09-12T09:37:11.322Z,95598.9
2022-09-12T09:38:13.524Z,95605.4
2022-09-12T09:39:15.740Z,95598.8
2022-09-12T09:40:18.421Z,95600.2
2022-09-12T09:41:20.873Z,95600.2
2022-09-12T09:42:23.062Z,95597.7
2022-09-12T09:43:25.569Z,95600.4
2022-09-12T09:44:28.051Z,95596.1
2022-09-12T09:45:30.241Z,95597.6
2022-09-12T09:46:33.150Z,95595.1
2022-09-12T09:47:35.493Z,95597.7
2022-09-12T09:48:37.808Z,95601
2022-09-12T09:49:40.009Z,95596.1
2022-09-12T09:50:41.971Z,95594.9
2022-09-12T09:51:44.185Z,95593.8
2022-09-12T09:52:46.402Z,95593.7
2022-09-12T09:53:48.888Z,95592
2022-09-12T09:54:50.843Z,95592.2
2022-09-12T09:55:53.038Z,95591.1
2022-09-12T09:56:55.521Z,95591
2022-09-12T09:57:57.986Z,95597.3
2022-09-12T09:59:00.221Z,95595.2
2022-09-12T10:00:02.703Z,95596.9
2022-09-12T10:01:05.099Z,95594
2022-09-12T10:02:07.913Z,95595.1
2022-09-12T10:04:15.456Z,95594.4
2022-09-12T10:05:17.947Z,95596.6
2022-09-12T10:06:20.445Z,95593.4
2022-09-12T10:07:22.661Z,95594
2022-09-12T10:08:25.159Z,95596.9
2022-09-12T10:09:27.637Z,95594.3
2022-09-12T10:10:29.862Z,95593
2022-09-12T10:11:32.059Z,95594.1
2022-09-12T10:12:34.277Z,95591.2
2022-09-12T10:13:36.799Z,95587.6
2022-09-12T10:14:39.006Z,95590.5
2022-09-12T10:15:41.747Z,95588.2
2022-09-12T10:16:44.313Z,95592.5
2022-09-12T10:17:46.918Z,95592.2
2022-09-12T10:18:49.390Z,95592.3
2022-09-12T10:20:56.858Z,95591.6
2022-09-12T10:21:59.110Z,95586.9
2022-09-12T10:23:01.590Z,95585.9
2022-09-12T10:24:04.105Z,95585.1
2022-09-12T10:25:06.373Z,95585
2022-09-12T10:26:08.625Z,95585.3
2022-09-12T10:27:10.813Z,95584.9
2022-09-12T10:28:12.757Z,95589.9
2022-09-12T10:29:15.228Z,95584.5
2022-09-12T10:30:17.173Z,95584.2
2022-09-12T10:31:19.915Z,95579.1
2022-09-12T10:32:22.422Z,95581.9
2022-09-12T10:33:29.386Z,95580.9
2022-09-12T10:34:31.646Z,95581.4
2022-09-12T10:35:33.824Z,95579.4
2022-09-12T10:36:36.022Z,95574.5
2022-09-12T10:37:38.509Z,95577.3
2022-09-12T10:38:40.978Z,95575.4
2022-09-12T10:39:43.603Z,95576
2022-09-12T10:40:46.149Z,95575.8
2022-09-12T10:41:48.630Z,95570.3
2022-09-12T10:42:51.114Z,95573.3
2022-09-12T10:43:53.293Z,95572.1
2022-09-12T10:44:55.765Z,95571.2
2022-09-12T10:45:58.546Z,95570.7
2022-09-12T10:47:01.165Z,95571.2
2022-09-12T10:49:08.419Z,95575
2022-09-12T10:51:16.376Z,95571.7
2022-09-12T10:52:18.628Z,95572.5
2022-09-12T10:53:20.626Z,95571
2022-09-12T10:54:23.101Z,95577.6
2022-09-12T10:55:25.595Z,95574.2
2022-09-12T10:56:27.814Z,95574.2
2022-09-12T10:57:30.027Z,95572.3
2022-09-12T10:58:31.936Z,95572.2
2022-09-12T10:59:34.133Z,95568
2022-09-12T11:00:36.331Z,95568.8
2022-09-12T11:01:39.149Z,95566.8
2022-09-12T11:02:41.866Z,95570.6
2022-09-12T11:03:44.198Z,95566.7
2022-09-12T11:04:46.701Z,95567.7
2022-09-12T11:05:49.173Z,95566.2
2022-09-12T11:06:51.657Z,95566.5
2022-09-12T11:07:53.861Z,95566.3
2022-09-12T11:08:56.358Z,95564.5
2022-09-12T11:09:58.533Z,95563.5
2022-09-12T11:11:00.778Z,95564.8
2022-09-12T11:12:02.977Z,95563.3
2022-09-12T11:13:05.250Z,95563.7
2022-09-12T11:14:07.742Z,95565.5
2022-09-12T11:15:10.233Z,95561.6
2022-09-12T11:16:13.156Z,95559.8
2022-09-12T11:17:15.747Z,95560.9
2022-09-12T11:18:17.948Z,95561.6
2022-09-12T11:19:20.149Z,95560.1
2022-09-12T11:20:22.677Z,95557.9
2022-09-12T11:21:25.150Z,95557.6
2022-09-12T11:23:32.048Z,95555.6
2022-09-12T11:24:34.545Z,95557.2
2022-09-12T11:25:36.741Z,95556.9
2022-09-12T11:26:38.968Z,95553.1
2022-09-12T11:27:40.892Z,95554.4
2022-09-12T11:29:48.577Z,95552.8
2022-09-12T11:30:50.916Z,95553.6
2022-09-12T11:31:53.473Z,95551.1
2022-09-12T11:32:56.000Z,95552.7
2022-09-12T11:33:58.532Z,95556.6
2022-09-12T11:35:00.442Z,95555.4
2022-09-12T11:36:02.938Z,95551.9
2022-09-12T11:38:10.418Z,95554.6
2022-09-12T11:39:12.629Z,95555.7
2022-09-12T11:40:15.357Z,95558.3
2022-09-12T11:41:17.899Z,95558.3
2022-09-12T11:42:20.392Z,95555.5
2022-09-12T11:43:22.866Z,95553.1
2022-09-12T11:44:24.827Z,95553.1
2022-09-12T11:45:27.041Z,95552.9
2022-09-12T11:46:29.481Z,95551.8
2022-09-12T11:47:31.677Z,95548.3
2022-09-12T11:48:34.186Z,95549.7
2022-09-12T11:49:37.344Z,95547.8
2022-09-12T11:50:39.277Z,95542
2022-09-12T11:51:41.768Z,95540.7
2022-09-12T11:52:43.950Z,95541.8
2022-09-12T11:53:46.917Z,95537.3
2022-09-12T11:55:54.618Z,95540.8
2022-09-12T11:56:56.813Z,95542.7
2022-09-12T11:57:59.299Z,95542.5
2022-09-12T11:59:01.776Z,95541.4
2022-09-12T12:00:04.282Z,95540.2
2022-09-12T12:01:06.474Z,95540
2022-09-12T12:02:09.213Z,95543.5
2022-09-12T12:03:11.729Z,95544.2
2022-09-12T12:04:14.362Z,95541.7
2022-09-12T12:05:16.897Z,95540.5
2022-09-12T12:06:19.384Z,95541.6
2022-09-12T12:07:21.883Z,95538.2
2022-09-12T12:08:24.352Z,95542.4
2022-09-12T12:09:26.560Z,95538.8
2022-09-12T12:10:28.748Z,95543.8
2022-09-12T12:11:30.952Z,95539.8
2022-09-12T12:12:33.420Z,95538.4
2022-09-12T12:13:35.916Z,95541.8
2022-09-12T12:14:38.385Z,95541
2022-09-12T12:15:41.116Z,95540
2022-09-12T12:16:43.782Z,95538.7
2022-09-12T12:17:46.260Z,95539.8
2022-09-12T12:18:49.166Z,95546.4
2022-09-12T12:19:51.392Z,95543.1
2022-09-12T12:20:53.862Z,95538.2
2022-09-12T12:21:56.089Z,95542.9
2022-09-12T12:22:58.294Z,95541.8
2022-09-12T12:24:00.496Z,95540.5
2022-09-12T12:25:02.695Z,95539.5
2022-09-12T12:26:05.181Z,95538.7
2022-09-12T12:27:07.706Z,95531.5
2022-09-12T12:28:10.187Z,95533.1
2022-09-12T12:29:12.681Z,95532.4
2022-09-12T12:30:14.593Z,95515.3
2022-09-12T12:31:17.566Z,95523
2022-09-12T12:32:19.978Z,95520.8
2022-09-12T12:33:21.894Z,95521.2
2022-09-12T12:34:24.385Z,95525.6
2022-09-12T12:35:26.583Z,95528.1
2022-09-12T12:36:28.790Z,95525.7
2022-09-12T12:37:31.264Z,95528.9
2022-09-12T12:38:33.474Z,95529.4
2022-09-12T12:39:35.396Z,95529.3
2022-09-12T12:40:37.882Z,95524.5
2022-09-12T12:41:40.352Z,95520.2
2022-09-12T12:42:42.858Z,95517.6
2022-09-12T12:43:45.456Z,95519.9
2022-09-12T12:44:47.962Z,95520.8
2022-09-12T12:45:50.538Z,95517.6
2022-09-12T12:46:53.120Z,95511.7
2022-09-12T12:47:55.323Z,95513.8
2022-09-12T12:48:57.521Z,95509.3
2022-09-12T12:49:59.999Z,95511.1
2022-09-12T12:51:02.212Z,95515
2022-09-12T12:52:04.115Z,95512.7
2022-09-12T12:53:06.589Z,95510.2
2022-09-12T12:55:13.806Z,95506.6
2022-09-12T12:56:16.327Z,95506.6
2022-09-12T12:57:18.795Z,95504.1
2022-09-12T12:58:20.751Z,95503.6
2022-09-12T12:59:22.951Z,95507.1
2022-09-12T13:00:25.448Z,95506.8
2022-09-12T13:01:27.921Z,95503
2022-09-12T13:02:30.795Z,95506.6
2022-09-12T13:03:32.816Z,95511.5